Fancy Prairie, Illinois
Current Conditions -  °F | °C
As of 5:52 AM on Wednesday 28 Jan 2015 (Local Time) from KSPI Reporting Station
Clear Clear  
Wind Chill: 17°   Ceiling: Unl
Heat Index: 27°   Visibility: 10mi
Dew Point: 21°   Wind: 10mph
Humidity: 78%   Direction: 150°SSE
Pressure: 30.25"   Gusts: NA
Location:  39.9822°N, 89.6851°W
Report Text: KSPI 281152Z 15009KT 10SM CLR M03/M06 A3025 RMK AO2 SLP250 T10281061 11028 21044 55003
Loading
Personal Weather Stations






























Interactive Weather Map New forecast layout! Learn more

10-Day Weather Forecast

Advertisements
Track Severe Weather on mobile